sensor_id;sensor_type;location;lat;lon;timestamp;pressure;altitude;pressure_sealevel;temperature
67829;BMP280;54626;45.436;10.942;2024-02-28T00:00:51;100229.56;;;12.44
67829;BMP280;54626;45.436;10.942;2024-02-28T00:03:19;100216.81;;;12.26
67829;BMP280;54626;45.436;10.942;2024-02-28T00:05:45;100217.91;;;12.46
67829;BMP280;54626;45.436;10.942;2024-02-28T00:08:12;100230.47;;;12.47
67829;BMP280;54626;45.436;10.942;2024-02-28T00:10:39;100228.06;;;12.51
67829;BMP280;54626;45.436;10.942;2024-02-28T00:13:05;100240.84;;;12.39
67829;BMP280;54626;45.436;10.942;2024-02-28T00:15:32;100244.53;;;12.41
67829;BMP280;54626;45.436;10.942;2024-02-28T00:17:58;100241.03;;;12.33
67829;BMP280;54626;45.436;10.942;2024-02-28T00:20:25;100241.22;;;12.35
67829;BMP280;54626;45.436;10.942;2024-02-28T00:22:53;100240.28;;;12.33
67829;BMP280;54626;45.436;10.942;2024-02-28T00:25:19;100244.16;;;12.37
67829;BMP280;54626;45.436;10.942;2024-02-28T00:27:46;100249.88;;;12.32
67829;BMP280;54626;45.436;10.942;2024-02-28T00:30:13;100247.50;;;12.36
67829;BMP280;54626;45.436;10.942;2024-02-28T00:32:39;100241.78;;;12.41
67829;BMP280;54626;45.436;10.942;2024-02-28T00:35:07;100245.63;;;12.31
67829;BMP280;54626;45.436;10.942;2024-02-28T00:37:35;100243.59;;;12.39
67829;BMP280;54626;45.436;10.942;2024-02-28T00:40:02;100246.59;;;12.33
67829;BMP280;54626;45.436;10.942;2024-02-28T00:42:28;100251.00;;;12.36
67829;BMP280;54626;45.436;10.942;2024-02-28T00:44:55;100243.25;;;12.42
67829;BMP280;54626;45.436;10.942;2024-02-28T00:47:21;100236.97;;;12.34
67829;BMP280;54626;45.436;10.942;2024-02-28T00:49:47;100246.59;;;12.33
67829;BMP280;54626;45.436;10.942;2024-02-28T00:52:14;100242.66;;;12.44
67829;BMP280;54626;45.436;10.942;2024-02-28T00:54:41;100245.66;;;12.38
67829;BMP280;54626;45.436;10.942;2024-02-28T00:57:07;100255.81;;;12.43
67829;BMP280;54626;45.436;10.942;2024-02-28T00:59:34;100251.38;;;12.33
67829;BMP280;54626;45.436;10.942;2024-02-28T01:02:01;100253.41;;;12.40
67829;BMP280;54626;45.436;10.942;2024-02-28T01:04:29;100252.88;;;12.41
67829;BMP280;54626;45.436;10.942;2024-02-28T01:06:56;100254.16;;;12.40
67829;BMP280;54626;45.436;10.942;2024-02-28T01:09:22;100255.63;;;12.49
67829;BMP280;54626;45.436;10.942;2024-02-28T01:11:49;100255.06;;;12.43
67829;BMP280;54626;45.436;10.942;2024-02-28T01:14:15;100261.34;;;12.51
67829;BMP280;54626;45.436;10.942;2024-02-28T01:16:42;100261.34;;;12.51
67829;BMP280;54626;45.436;10.942;2024-02-28T01:19:08;100270.78;;;12.48
67829;BMP280;54626;45.436;10.942;2024-02-28T01:21:34;100263.22;;;12.48
67829;BMP280;54626;45.436;10.942;2024-02-28T01:24:01;100261.72;;;12.55
67829;BMP280;54626;45.436;10.942;2024-02-28T01:26:27;100277.41;;;12.60
67829;BMP280;54626;45.436;10.942;2024-02-28T01:28:54;100263.19;;;12.63
67829;BMP280;54626;45.436;10.942;2024-02-28T01:31:20;100272.41;;;12.66
67829;BMP280;54626;45.436;10.942;2024-02-28T01:33:47;100266.13;;;12.58
67829;BMP280;54626;45.436;10.942;2024-02-28T01:36:17;100275.22;;;12.58
67829;BMP280;54626;45.436;10.942;2024-02-28T01:38:43;100269.47;;;12.56
67829;BMP280;54626;45.436;10.942;2024-02-28T01:41:10;100268.38;;;12.52
67829;BMP280;54626;45.436;10.942;2024-02-28T01:43:36;100262.81;;;12.59
67829;BMP280;54626;45.436;10.942;2024-02-28T01:46:04;100268.91;;;12.58
67829;BMP280;54626;45.436;10.942;2024-02-28T01:48:33;100265.59;;;12.59
67829;BMP280;54626;45.436;10.942;2024-02-28T01:50:59;100268.19;;;12.57
67829;BMP280;54626;45.436;10.942;2024-02-28T01:53:26;100261.53;;;12.45
67829;BMP280;54626;45.436;10.942;2024-02-28T01:55:53;100260.59;;;12.50
67829;BMP280;54626;45.436;10.942;2024-02-28T01:58:19;100263.56;;;12.52
67829;BMP280;54626;45.436;10.942;2024-02-28T02:00:47;100263.94;;;12.56
67829;BMP280;54626;45.436;10.942;2024-02-28T02:03:16;100260.59;;;12.58
67829;BMP280;54626;45.436;10.942;2024-02-28T02:05:43;100254.31;;;12.57
67829;BMP280;54626;45.436;10.942;2024-02-28T02:08:10;100251.94;;;12.61
67829;BMP280;54626;45.436;10.942;2024-02-28T02:10:37;100263.56;;;12.67
67829;BMP280;54626;45.436;10.942;2024-02-28T02:13:07;100260.59;;;12.65
67829;BMP280;54626;45.436;10.942;2024-02-28T02:15:34;100269.84;;;12.68
67829;BMP280;54626;45.436;10.942;2024-02-28T02:18:00;100264.66;;;12.64
67829;BMP280;54626;45.436;10.942;2024-02-28T02:20:30;100265.06;;;12.53
67829;BMP280;54626;45.436;10.942;2024-02-28T02:23:01;100268.03;;;12.55
67829;BMP280;54626;45.436;10.942;2024-02-28T02:25:27;100269.84;;;12.68
67829;BMP280;54626;45.436;10.942;2024-02-28T02:27:54;100272.06;;;12.69
67829;BMP280;54626;45.436;10.942;2024-02-28T02:30:20;100273.94;;;12.59
67829;BMP280;54626;45.436;10.942;2024-02-28T02:32:47;100282.97;;;12.67
67829;BMP280;54626;45.436;10.942;2024-02-28T02:35:16;100276.13;;;12.61
67829;BMP280;54626;45.436;10.942;2024-02-28T02:37:44;100282.06;;;12.57
67829;BMP280;54626;45.436;10.942;2024-02-28T02:40:12;100280.75;;;12.51
67829;BMP280;54626;45.436;10.942;2024-02-28T02:42:38;100281.34;;;12.49
67829;BMP280;54626;45.436;10.942;2024-02-28T02:45:05;100280.97;;;12.45
67829;BMP280;54626;45.436;10.942;2024-02-28T02:47:32;100279.47;;;12.44
67829;BMP280;54626;45.436;10.942;2024-02-28T02:49:58;100282.78;;;12.43
67829;BMP280;54626;45.436;10.942;2024-02-28T02:52:25;100277.63;;;12.39
67829;BMP280;54626;45.436;10.942;2024-02-28T02:54:51;100277.81;;;12.34
67829;BMP280;54626;45.436;10.942;2024-02-28T02:57:18;100274.50;;;12.35
67829;BMP280;54626;45.436;10.942;2024-02-28T02:59:44;100277.09;;;12.33
67829;BMP280;54626;45.436;10.942;2024-02-28T03:02:11;100278.00;;;12.43
67829;BMP280;54626;45.436;10.942;2024-02-28T03:04:37;100278.00;;;12.43
67829;BMP280;54626;45.436;10.942;2024-02-28T03:07:04;100269.66;;;12.51
67829;BMP280;54626;45.436;10.942;2024-02-28T03:09:31;100274.66;;;12.52
67829;BMP280;54626;45.436;10.942;2024-02-28T03:11:57;100277.22;;;12.58
67829;BMP280;54626;45.436;10.942;2024-02-28T03:14:23;100270.75;;;12.70
67829;BMP280;54626;45.436;10.942;2024-02-28T03:16:51;100277.59;;;12.69
67829;BMP280;54626;45.436;10.942;2024-02-28T03:19:17;100285.00;;;12.74
67829;BMP280;54626;45.436;10.942;2024-02-28T03:21:44;100294.63;;;12.73
67829;BMP280;54626;45.436;10.942;2024-02-28T03:24:11;100297.03;;;12.69
67829;BMP280;54626;45.436;10.942;2024-02-28T03:26:38;100299.06;;;12.69
67829;BMP280;54626;45.436;10.942;2024-02-28T03:29:04;100304.44;;;12.59
67829;BMP280;54626;45.436;10.942;2024-02-28T03:31:31;100309.03;;;12.57
67829;BMP280;54626;45.436;10.942;2024-02-28T03:33:57;100313.66;;;12.69
67829;BMP280;54626;45.436;10.942;2024-02-28T03:36:24;100311.81;;;12.72
67829;BMP280;54626;45.436;10.942;2024-02-28T03:38:51;100310.50;;;12.73
67829;BMP280;54626;45.436;10.942;2024-02-28T03:41:17;100310.75;;;12.75
67829;BMP280;54626;45.436;10.942;2024-02-28T03:43:44;100317.91;;;12.85
67829;BMP280;54626;45.436;10.942;2024-02-28T03:46:10;100315.13;;;12.85
67829;BMP280;54626;45.436;10.942;2024-02-28T03:48:37;100317.56;;;12.89
67829;BMP280;54626;45.436;10.942;2024-02-28T03:51:05;100321.03;;;12.89
67829;BMP280;54626;45.436;10.942;2024-02-28T03:53:31;100320.28;;;12.96
67829;BMP280;54626;45.436;10.942;2024-02-28T03:55:58;100321.25;;;12.84
67829;BMP280;54626;45.436;10.942;2024-02-28T03:58:25;100320.16;;;12.79
67829;BMP280;54626;45.436;10.942;2024-02-28T04:00:51;100324.19;;;12.93
67829;BMP280;54626;45.436;10.942;2024-02-28T04:03:18;100322.72;;;12.92
67829;BMP280;54626;45.436;10.942;2024-02-28T04:05:44;100319.75;;;12.90
67829;BMP280;54626;45.436;10.942;2024-02-28T04:08:11;100330.50;;;12.93
67829;BMP280;54626;45.436;10.942;2024-02-28T04:10:38;100328.84;;;12.91
67829;BMP280;54626;45.436;10.942;2024-02-28T04:13:04;100336.81;;;12.87
67829;BMP280;54626;45.436;10.942;2024-02-28T04:15:31;100332.16;;;12.89
67829;BMP280;54626;45.436;10.942;2024-02-28T04:17:57;100347.16;;;12.93
67829;BMP280;54626;45.436;10.942;2024-02-28T04:20:24;100335.69;;;12.90
67829;BMP280;54626;45.436;10.942;2024-02-28T04:22:51;100336.94;;;12.96
67829;BMP280;54626;45.436;10.942;2024-02-28T04:25:17;100335.66;;;12.97
67829;BMP280;54626;45.436;10.942;2024-02-28T04:27:43;100335.66;;;12.97
67829;BMP280;54626;45.436;10.942;2024-02-28T04:30:10;100336.25;;;12.88
67829;BMP280;54626;45.436;10.942;2024-02-28T04:32:37;100339.38;;;12.92
67829;BMP280;54626;45.436;10.942;2024-02-28T04:35:04;100353.44;;;12.94
67829;BMP280;54626;45.436;10.942;2024-02-28T04:37:31;100352.69;;;12.71
67829;BMP280;54626;45.436;10.942;2024-02-28T04:39:57;100362.34;;;12.78
67829;BMP280;54626;45.436;10.942;2024-02-28T04:42:24;100368.25;;;12.74
67829;BMP280;54626;45.436;10.942;2024-02-28T04:44:50;100377.66;;;12.71
67829;BMP280;54626;45.436;10.942;2024-02-28T04:47:16;100367.13;;;12.77
67829;BMP280;54626;45.436;10.942;2024-02-28T04:49:45;100373.97;;;12.76
67829;BMP280;54626;45.436;10.942;2024-02-28T04:52:11;100378.22;;;12.77
67829;BMP280;54626;45.436;10.942;2024-02-28T04:54:39;100383.25;;;12.79
67829;BMP280;54626;45.436;10.942;2024-02-28T04:57:06;100391.19;;;12.75
67829;BMP280;54626;45.436;10.942;2024-02-28T04:59:32;100384.72;;;12.87
67829;BMP280;54626;45.436;10.942;2024-02-28T05:01:59;100384.72;;;12.87
67829;BMP280;54626;45.436;10.942;2024-02-28T05:04:25;100383.44;;;12.81
67829;BMP280;54626;45.436;10.942;2024-02-28T05:06:53;100380.47;;;12.79
67829;BMP280;54626;45.436;10.942;2024-02-28T05:09:19;100382.31;;;12.84
67829;BMP280;54626;45.436;10.942;2024-02-28T05:11:46;100380.47;;;12.79
67829;BMP280;54626;45.436;10.942;2024-02-28T05:14:12;100393.59;;;12.78
67829;BMP280;54626;45.436;10.942;2024-02-28T05:16:39;100396.53;;;12.73
67829;BMP280;54626;45.436;10.942;2024-02-28T05:19:05;100400.59;;;12.72
67829;BMP280;54626;45.436;10.942;2024-02-28T05:21:31;100392.09;;;12.62
67829;BMP280;54626;45.436;10.942;2024-02-28T05:23:58;100391.69;;;12.51
67829;BMP280;54626;45.436;10.942;2024-02-28T05:26:24;100400.75;;;12.44
67829;BMP280;54626;45.436;10.942;2024-02-28T05:28:52;100393.69;;;12.28
67829;BMP280;54626;45.436;10.942;2024-02-28T05:31:23;100398.66;;;12.15
67829;BMP280;54626;45.436;10.942;2024-02-28T05:33:53;100406.94;;;12.07
67829;BMP280;54626;45.436;10.942;2024-02-28T05:36:25;100410.78;;;11.97
67829;BMP280;54626;45.436;10.942;2024-02-28T05:38:53;100404.41;;;11.81
67829;BMP280;54626;45.436;10.942;2024-02-28T05:41:20;100408.28;;;11.71
67829;BMP280;54626;45.436;10.942;2024-02-28T05:43:47;100413.56;;;11.61
67829;BMP280;54626;45.436;10.942;2024-02-28T05:46:15;100412.94;;;11.48
67829;BMP280;54626;45.436;10.942;2024-02-28T05:48:45;100406.81;;;11.42
67829;BMP280;54626;45.436;10.942;2024-02-28T05:51:12;100417.31;;;11.36
67829;BMP280;54626;45.436;10.942;2024-02-28T05:53:41;100416.13;;;11.32
67829;BMP280;54626;45.436;10.942;2024-02-28T05:56:10;100422.44;;;11.32
67829;BMP280;54626;45.436;10.942;2024-02-28T05:58:43;100428.66;;;11.25
67829;BMP280;54626;45.436;10.942;2024-02-28T06:01:11;100429.75;;;11.22
67829;BMP280;54626;45.436;10.942;2024-02-28T06:03:38;100433.31;;;11.10
67829;BMP280;54626;45.436;10.942;2024-02-28T06:06:04;100436.56;;;11.21
67829;BMP280;54626;45.436;10.942;2024-02-28T06:08:32;100437.84;;;11.20
67829;BMP280;54626;45.436;10.942;2024-02-28T06:10:59;100443.19;;;11.18
67829;BMP280;54626;45.436;10.942;2024-02-28T06:13:27;100435.97;;;11.15
67829;BMP280;54626;45.436;10.942;2024-02-28T06:15:54;100451.63;;;11.13
67829;BMP280;54626;45.436;10.942;2024-02-28T06:18:22;100445.16;;;11.10
67829;BMP280;54626;45.436;10.942;2024-02-28T06:20:49;100447.06;;;11.15
67829;BMP280;54626;45.436;10.942;2024-02-28T06:23:16;100445.34;;;11.12
67829;BMP280;54626;45.436;10.942;2024-02-28T06:25:53;100457.03;;;11.18
67829;BMP280;54626;45.436;10.942;2024-02-28T06:28:20;100453.06;;;11.06
67829;BMP280;54626;45.436;10.942;2024-02-28T06:30:47;100463.88;;;11.25
67829;BMP280;54626;45.436;10.942;2024-02-28T06:33:14;100464.69;;;11.33
67829;BMP280;54626;45.436;10.942;2024-02-28T06:35:40;100468.25;;;11.41
67829;BMP280;54626;45.436;10.942;2024-02-28T06:38:07;100473.28;;;11.42
67829;BMP280;54626;45.436;10.942;2024-02-28T06:40:34;100476.97;;;11.44
67829;BMP280;54626;45.436;10.942;2024-02-28T06:43:01;100485.34;;;11.52
67829;BMP280;54626;45.436;10.942;2024-02-28T06:45:28;100490.59;;;11.63
67829;BMP280;54626;45.436;10.942;2024-02-28T06:47:54;100494.47;;;11.67
67829;BMP280;54626;45.436;10.942;2024-02-28T06:50:20;100495.78;;;11.66
67829;BMP280;54626;45.436;10.942;2024-02-28T06:52:50;100503.03;;;11.77
67829;BMP280;54626;45.436;10.942;2024-02-28T06:55:20;100505.31;;;11.86
67829;BMP280;54626;45.436;10.942;2024-02-28T06:57:47;100509.97;;;11.91
67829;BMP280;54626;45.436;10.942;2024-02-28T07:00:16;100510.38;;;11.95
67829;BMP280;54626;45.436;10.942;2024-02-28T07:02:48;100518.16;;;12.04
67829;BMP280;54626;45.436;10.942;2024-02-28T07:05:17;100519.66;;;12.05
67829;BMP280;54626;45.436;10.942;2024-02-28T07:07:45;100523.72;;;12.04
67829;BMP280;54626;45.436;10.942;2024-02-28T07:10:12;100519.66;;;12.05
67829;BMP280;54626;45.436;10.942;2024-02-28T07:12:39;100520.38;;;12.05
67829;BMP280;54626;45.436;10.942;2024-02-28T07:15:06;100524.28;;;12.10
67829;BMP280;54626;45.436;10.942;2024-02-28T07:17:33;100534.88;;;12.18
67829;BMP280;54626;45.436;10.942;2024-02-28T07:19:59;100536.16;;;12.18
67829;BMP280;54626;45.436;10.942;2024-02-28T07:39:31;100542.78;;;12.42
67829;BMP280;54626;45.436;10.942;2024-02-28T07:41:58;100537.97;;;12.50
67829;BMP280;54626;45.436;10.942;2024-02-28T07:44:34;100542.63;;;12.55
67829;BMP280;54626;45.436;10.942;2024-02-28T07:47:01;100555.91;;;12.57
67829;BMP280;54626;45.436;10.942;2024-02-28T07:49:28;100560.03;;;12.63
67829;BMP280;54626;45.436;10.942;2024-02-28T07:51:56;100564.47;;;12.66
67829;BMP280;54626;45.436;10.942;2024-02-28T07:54:23;100561.38;;;12.77
67829;BMP280;54626;45.436;10.942;2024-02-28T07:56:50;100574.34;;;12.82
67829;BMP280;54626;45.436;10.942;2024-02-28T07:59:20;100568.06;;;12.89
67829;BMP280;54626;45.436;10.942;2024-02-28T08:01:47;100573.31;;;13.07
67829;BMP280;54626;45.436;10.942;2024-02-28T08:04:15;100573.69;;;13.11
67829;BMP280;54626;45.436;10.942;2024-02-28T08:06:48;100572.97;;;13.18
67829;BMP280;54626;45.436;10.942;2024-02-28T08:09:14;100585.72;;;13.29
67829;BMP280;54626;45.436;10.942;2024-02-28T08:11:44;100583.91;;;13.31
67829;BMP280;54626;45.436;10.942;2024-02-28T08:14:11;100583.13;;;13.23
67829;BMP280;54626;45.436;10.942;2024-02-28T08:16:37;100593.84;;;13.27
67829;BMP280;54626;45.436;10.942;2024-02-28T08:19:04;100593.13;;;13.19
67829;BMP280;54626;45.436;10.942;2024-02-28T08:21:30;100594.22;;;13.16
67829;BMP280;54626;45.436;10.942;2024-02-28T08:23:57;100603.31;;;13.24
67829;BMP280;54626;45.436;10.942;2024-02-28T08:26:25;100599.59;;;13.21
67829;BMP280;54626;45.436;10.942;2024-02-28T08:28:51;100602.94;;;13.20
67829;BMP280;54626;45.436;10.942;2024-02-28T08:31:17;100599.59;;;13.21
67829;BMP280;54626;45.436;10.942;2024-02-28T08:33:44;100598.72;;;13.26
67829;BMP280;54626;45.436;10.942;2024-02-28T08:36:10;100605.91;;;13.29
67829;BMP280;54626;45.436;10.942;2024-02-28T08:38:37;100599.63;;;13.44
67829;BMP280;54626;45.436;10.942;2024-02-28T08:41:10;100599.06;;;13.53
67829;BMP280;54626;45.436;10.942;2024-02-28T08:43:39;100604.44;;;13.51
67829;BMP280;54626;45.436;10.942;2024-02-28T08:46:14;100600.19;;;13.42
67829;BMP280;54626;45.436;10.942;2024-02-28T08:48:42;100613.72;;;13.38
67829;BMP280;54626;45.436;10.942;2024-02-28T08:51:08;100610.94;;;13.38
67829;BMP280;54626;45.436;10.942;2024-02-28T08:53:40;100605.75;;;13.42
67829;BMP280;54626;45.436;10.942;2024-02-28T08:56:07;100609.06;;;13.56
67829;BMP280;54626;45.436;10.942;2024-02-28T08:58:34;100616.88;;;13.57
67829;BMP280;54626;45.436;10.942;2024-02-28T09:01:04;100621.84;;;13.59
67829;BMP280;54626;45.436;10.942;2024-02-28T09:03:45;100616.13;;;13.57
67829;BMP280;54626;45.436;10.942;2024-02-28T09:06:15;100617.22;;;13.76
67829;BMP280;54626;45.436;10.942;2024-02-28T09:08:42;100623.31;;;13.89
67829;BMP280;54626;45.436;10.942;2024-02-28T09:11:11;100633.91;;;13.98
67829;BMP280;54626;45.436;10.942;2024-02-28T09:13:37;100636.31;;;14.02
67829;BMP280;54626;45.436;10.942;2024-02-28T09:16:04;100634.53;;;14.36
67829;BMP280;54626;45.436;10.942;2024-02-28T09:18:30;100635.47;;;14.46
67829;BMP280;54626;45.436;10.942;2024-02-28T09:20:57;100640.28;;;14.45
67829;BMP280;54626;45.436;10.942;2024-02-28T09:23:26;100624.94;;;14.69
67829;BMP280;54626;45.436;10.942;2024-02-28T09:25:53;100634.25;;;14.64
67829;BMP280;54626;45.436;10.942;2024-02-28T09:28:20;100632.00;;;14.70
67829;BMP280;54626;45.436;10.942;2024-02-28T09:30:46;100626.00;;;14.81
67829;BMP280;54626;45.436;10.942;2024-02-28T09:33:21;100628.75;;;15.20
67829;BMP280;54626;45.436;10.942;2024-02-28T09:35:48;100635.34;;;15.39
67829;BMP280;54626;45.436;10.942;2024-02-28T09:38:15;100639.13;;;15.51
67829;BMP280;54626;45.436;10.942;2024-02-28T09:40:46;100637.91;;;15.86
67829;BMP280;54626;45.436;10.942;2024-02-28T09:43:28;100629.09;;;16.14
67829;BMP280;54626;45.436;10.942;2024-02-28T09:46:03;100629.69;;;16.55
67829;BMP280;54626;45.436;10.942;2024-02-28T09:48:31;100636.94;;;16.41
67829;BMP280;54626;45.436;10.942;2024-02-28T09:50:59;100637.97;;;16.46
67829;BMP280;54626;45.436;10.942;2024-02-28T09:53:26;100634.69;;;16.40
67829;BMP280;54626;45.436;10.942;2024-02-28T09:55:53;100636.19;;;16.41
67829;BMP280;54626;45.436;10.942;2024-02-28T09:58:19;100632.53;;;16.22
67829;BMP280;54626;45.436;10.942;2024-02-28T10:00:48;100630.53;;;16.15
67829;BMP280;54626;45.436;10.942;2024-02-28T10:03:22;100633.22;;;16.05
67829;BMP280;54626;45.436;10.942;2024-02-28T10:05:50;100645.94;;;15.99
67829;BMP280;54626;45.436;10.942;2024-02-28T10:08:17;100649.09;;;15.78
67829;BMP280;54626;45.436;10.942;2024-02-28T10:14:26;100656.53;;;15.59
67829;BMP280;54626;45.436;10.942;2024-02-28T10:16:55;100659.16;;;15.57
67829;BMP280;54626;45.436;10.942;2024-02-28T10:19:21;100654.41;;;15.50
67829;BMP280;54626;45.436;10.942;2024-02-28T10:21:50;100648.53;;;15.63
67829;BMP280;54626;45.436;10.942;2024-02-28T10:24:17;100655.66;;;15.73
67829;BMP280;54626;45.436;10.942;2024-02-28T10:26:44;100657.94;;;15.92
67829;BMP280;54626;45.436;10.942;2024-02-28T10:29:12;100663.19;;;15.88
67829;BMP280;54626;45.436;10.942;2024-02-28T10:32:10;100671.84;;;15.75
67829;BMP280;54626;45.436;10.942;2024-02-28T10:34:38;100672.34;;;15.57
67829;BMP280;54626;45.436;10.942;2024-02-28T10:37:05;100691.50;;;15.60
67829;BMP280;54626;45.436;10.942;2024-02-28T10:39:32;100685.09;;;15.67
67829;BMP280;54626;45.436;10.942;2024-02-28T10:42:00;100683.00;;;15.75
67829;BMP280;54626;45.436;10.942;2024-02-28T10:44:29;100686.31;;;15.81
67829;BMP280;54626;45.436;10.942;2024-02-28T10:46:57;100685.59;;;15.73
67829;BMP280;54626;45.436;10.942;2024-02-28T10:49:25;100675.50;;;16.02
67829;BMP280;54626;45.436;10.942;2024-02-28T10:51:53;100677.47;;;16.09
67829;BMP280;54626;45.436;10.942;2024-02-28T10:54:21;100680.94;;;16.17
67829;BMP280;54626;45.436;10.942;2024-02-28T10:56:51;100685.25;;;16.10
67829;BMP280;54626;45.436;10.942;2024-02-28T10:59:18;100680.16;;;15.99
67829;BMP280;54626;45.436;10.942;2024-02-28T11:01:47;100685.97;;;15.77
67829;BMP280;54626;45.436;10.942;2024-02-28T11:04:16;100695.34;;;15.65
67829;BMP280;54626;45.436;10.942;2024-02-28T11:06:54;100695.25;;;15.55
67829;BMP280;54626;45.436;10.942;2024-02-28T11:09:28;100688.06;;;15.45
67829;BMP280;54626;45.436;10.942;2024-02-28T11:11:54;100696.00;;;15.24
67829;BMP280;54626;45.436;10.942;2024-02-28T11:14:22;100695.78;;;14.90
67829;BMP280;54626;45.436;10.942;2024-02-28T11:17:00;100701.06;;;14.64
67829;BMP280;54626;45.436;10.942;2024-02-28T11:19:29;100702.94;;;14.54
67829;BMP280;54626;45.436;10.942;2024-02-28T11:22:00;100711.31;;;14.46
67829;BMP280;54626;45.436;10.942;2024-02-28T11:24:31;100704.84;;;14.36
67829;BMP280;54626;45.436;10.942;2024-02-28T11:26:57;100707.84;;;14.24
67829;BMP280;54626;45.436;10.942;2024-02-28T11:29:25;100703.94;;;14.19
67829;BMP280;54626;45.436;10.942;2024-02-28T11:31:52;100710.06;;;14.25
67829;BMP280;54626;45.436;10.942;2024-02-28T11:34:20;100714.88;;;14.32
67829;BMP280;54626;45.436;10.942;2024-02-28T11:36:48;100715.41;;;14.38
67829;BMP280;54626;45.436;10.942;2024-02-28T11:39:16;100713.94;;;14.44
67829;BMP280;54626;45.436;10.942;2024-02-28T11:41:43;100710.59;;;14.46
67829;BMP280;54626;45.436;10.942;2024-02-28T11:44:15;100710.03;;;14.40
67829;BMP280;54626;45.436;10.942;2024-02-28T11:46:45;100709.50;;;14.27
67829;BMP280;54626;45.436;10.942;2024-02-28T11:49:12;100709.84;;;14.23
67829;BMP280;54626;45.436;10.942;2024-02-28T11:51:42;100717.84;;;14.19
67829;BMP280;54626;45.436;10.942;2024-02-28T11:54:09;100724.34;;;14.14
67829;BMP280;54626;45.436;10.942;2024-02-28T11:56:39;100721.38;;;14.12
67829;BMP280;54626;45.436;10.942;2024-02-28T11:59:06;100721.75;;;14.16
67829;BMP280;54626;45.436;10.942;2024-02-28T12:01:41;100719.16;;;14.18
67829;BMP280;54626;45.436;10.942;2024-02-28T12:04:08;100725.63;;;14.28
67829;BMP280;54626;45.436;10.942;2024-02-28T12:06:37;100718.22;;;14.31
67829;BMP280;54626;45.436;10.942;2024-02-28T12:09:06;100719.34;;;14.20
67829;BMP280;54626;45.436;10.942;2024-02-28T12:11:36;100726.38;;;13.91
67829;BMP280;54626;45.436;10.942;2024-02-28T12:14:09;100722.31;;;13.92
67829;BMP280;54626;45.436;10.942;2024-02-28T12:16:37;100721.75;;;13.86
67829;BMP280;54626;45.436;10.942;2024-02-28T12:19:07;100713.41;;;13.86
67829;BMP280;54626;45.436;10.942;2024-02-28T12:21:34;100716.03;;;13.92
67829;BMP280;54626;45.436;10.942;2024-02-28T12:24:00;100706.94;;;13.84
67829;BMP280;54626;45.436;10.942;2024-02-28T12:26:27;100708.22;;;13.90
67829;BMP280;54626;45.436;10.942;2024-02-28T12:28:54;100701.38;;;13.99
67829;BMP280;54626;45.436;10.942;2024-02-28T12:31:22;100707.31;;;14.03
67829;BMP280;54626;45.436;10.942;2024-02-28T12:33:49;100694.50;;;14.07
67829;BMP280;54626;45.436;10.942;2024-02-28T12:36:15;100693.38;;;14.10
67829;BMP280;54626;45.436;10.942;2024-02-28T12:38:42;100682.63;;;14.14
67829;BMP280;54626;45.436;10.942;2024-02-28T12:41:08;100682.28;;;14.10
67829;BMP280;54626;45.436;10.942;2024-02-28T12:43:35;100676.53;;;13.93
67829;BMP280;54626;45.436;10.942;2024-02-28T12:49:50;100673.59;;;13.69
67829;BMP280;54626;45.436;10.942;2024-02-28T12:52:16;100674.88;;;13.68
67829;BMP280;54626;45.436;10.942;2024-02-28T12:54:49;100681.50;;;13.58
67829;BMP280;54626;45.436;10.942;2024-02-28T12:57:18;100681.88;;;13.54
67829;BMP280;54626;45.436;10.942;2024-02-28T12:59:49;100682.81;;;13.57
67829;BMP280;54626;45.436;10.942;2024-02-28T13:02:17;100685.03;;;13.65
67829;BMP280;54626;45.436;10.942;2024-02-28T13:04:46;100690.06;;;13.74
67829;BMP280;54626;45.436;10.942;2024-02-28T13:07:12;100690.44;;;13.86
67829;BMP280;54626;45.436;10.942;2024-02-28T13:09:39;100689.31;;;13.96
67829;BMP280;54626;45.436;10.942;2024-02-28T13:12:07;100681.53;;;13.87
67829;BMP280;54626;45.436;10.942;2024-02-28T13:14:35;100684.47;;;13.89
67829;BMP280;54626;45.436;10.942;2024-02-28T13:17:01;100674.69;;;13.96
67829;BMP280;54626;45.436;10.942;2024-02-28T13:19:30;100686.00;;;13.98
67829;BMP280;54626;45.436;10.942;2024-02-28T13:21:57;100674.47;;;14.01
67829;BMP280;54626;45.436;10.942;2024-02-28T13:24:24;100685.25;;;14.05
67829;BMP280;54626;45.436;10.942;2024-02-28T13:26:50;100673.91;;;14.18
67829;BMP280;54626;45.436;10.942;2024-02-28T13:29:17;100669.06;;;14.18
67829;BMP280;54626;45.436;10.942;2024-02-28T13:31:43;100675.00;;;14.30
67829;BMP280;54626;45.436;10.942;2024-02-28T13:34:12;100670.38;;;14.17
67829;BMP280;54626;45.436;10.942;2024-02-28T13:36:41;100676.72;;;14.10
67829;BMP280;54626;45.436;10.942;2024-02-28T13:39:16;100686.72;;;13.98
67829;BMP280;54626;45.436;10.942;2024-02-28T13:41:43;100697.09;;;13.90
67829;BMP280;54626;45.436;10.942;2024-02-28T13:44:10;100703.03;;;13.94
67829;BMP280;54626;45.436;10.942;2024-02-28T13:46:36;100701.56;;;14.16
67829;BMP280;54626;45.436;10.942;2024-02-28T13:49:05;100692.63;;;14.25
67829;BMP280;54626;45.436;10.942;2024-02-28T13:51:33;100699.28;;;14.36
67829;BMP280;54626;45.436;10.942;2024-02-28T13:53:59;100698.72;;;14.38
67829;BMP280;54626;45.436;10.942;2024-02-28T13:56:26;100701.16;;;14.34
67829;BMP280;54626;45.436;10.942;2024-02-28T13:58:53;100698.38;;;14.34
67829;BMP280;54626;45.436;10.942;2024-02-28T14:01:20;100701.72;;;14.32
67829;BMP280;54626;45.436;10.942;2024-02-28T14:03:50;100684.13;;;14.23
67829;BMP280;54626;45.436;10.942;2024-02-28T14:06:16;100691.88;;;14.24
67829;BMP280;54626;45.436;10.942;2024-02-28T14:08:43;100679.25;;;14.23
67829;BMP280;54626;45.436;10.942;2024-02-28T14:11:10;100676.88;;;14.20